Beaver Bay, Minnesota
Current Conditions -  °F | °C
As of 4:54 PM on Saturday 25 Oct 2014 (Local Time) from KBFW Reporting Station
Clear Clear  
Wind Chill: 57°   Ceiling: Unl
Heat Index: 57°   Visibility: 10mi
Dew Point: 23°   Wind: 12mph
Humidity: 27%   Direction: 280°W
Pressure: 29.86"   Gusts: 24mph
Location:  47.26°N, 91.3°W
Report Text: KBFW 252154Z AUTO 28010G21KT 240V300 10SM CLR 14/M05 A2986 RMK AO2
Loading
Personal Weather Stations






























Interactive Weather Map
Tropical Storm Tracking
New forecast layout! Learn more

10-Day Weather Forecast

Advertisements
Track Severe Weather on mobile